createdAt,value
2019-01-16T09:58:39.987Z,3.92
2019-01-16T10:01:25.709Z,3.88
2019-01-16T10:04:09.564Z,4.01
2019-01-16T10:06:52.632Z,3.88
2019-01-16T10:09:24.852Z,3.71
2019-01-16T10:12:05.041Z,3.38
2019-01-16T10:14:34.306Z,2.32
2019-01-16T10:17:03.637Z,3.13
2019-01-16T10:19:37.241Z,4.13
2019-01-16T10:22:20.053Z,3.69
2019-01-16T10:24:59.963Z,2.88
2019-01-16T10:27:31.089Z,3.24
2019-01-16T10:30:07.822Z,3.91
2019-01-16T10:32:41.427Z,3.99
2019-01-16T10:35:28.453Z,4.51
2019-01-16T10:38:05.065Z,4.87
2019-01-16T10:40:54.365Z,5.81
2019-01-16T10:43:25.490Z,5.44
2019-01-16T10:46:12.850Z,5.00
2019-01-16T10:49:00.204Z,5.13
2019-01-16T10:51:41.106Z,5.37
2019-01-16T10:54:12.234Z,5.80
2019-01-16T10:56:54.306Z,6.17
2019-01-16T10:59:34.102Z,6.54
2019-01-16T11:02:11.289Z,6.20
2019-01-16T11:04:42.436Z,7.52
2019-01-16T11:07:25.674Z,8.77
2019-01-16T11:10:08.971Z,9.94
2019-01-16T11:12:51.852Z,9.22
2019-01-16T11:15:32.824Z,10.36
2019-01-16T11:18:03.947Z,9.96
2019-01-16T11:20:47.738Z,9.14
2019-01-16T11:23:16.984Z,9.81
2019-01-16T11:25:48.173Z,9.70
2019-01-16T11:28:29.032Z,10.32
2019-01-16T11:31:16.116Z,12.54
2019-01-16T11:34:02.195Z,10.56
2019-01-16T11:36:39.105Z,10.88
2019-01-16T11:39:26.167Z,10.91
2019-01-16T11:41:57.550Z,12.06
2019-01-16T11:44:37.077Z,12.04
2019-01-16T11:47:24.326Z,12.44
2019-01-16T11:50:01.189Z,12.14
2019-01-16T11:52:33.197Z,11.93
2019-01-16T11:55:17.426Z,12.13
2019-01-16T11:57:57.655Z,11.87
2019-01-16T12:00:31.870Z,11.34
2019-01-16T12:03:04.100Z,13.18
2019-01-16T12:05:38.359Z,12.79
2019-01-16T12:08:18.429Z,12.69
2019-01-16T12:10:49.633Z,12.83
2019-01-16T12:13:20.817Z,14.99
2019-01-16T12:15:54.762Z,11.94
2019-01-16T12:18:28.291Z,12.56
2019-01-16T12:20:59.435Z,10.94
2019-01-16T12:23:46.192Z,10.78
2019-01-16T12:26:33.025Z,10.88
2019-01-16T12:29:13.203Z,12.23
2019-01-16T12:32:00.356Z,12.01
2019-01-16T12:34:31.483Z,12.36
2019-01-16T12:37:05.403Z,12.02
2019-01-16T12:39:51.623Z,12.28
2019-01-16T12:42:37.863Z,11.53
2019-01-16T12:45:12.596Z,12.64
2019-01-16T12:47:46.700Z,11.87
2019-01-16T12:50:20.771Z,11.66
2019-01-16T12:52:57.646Z,13.06
2019-01-16T12:55:44.549Z,13.86
2019-01-16T12:58:31.774Z,13.70
2019-01-16T13:01:08.713Z,14.28
2019-01-16T13:03:43.367Z,12.45
2019-01-16T13:06:31.014Z,12.59
2019-01-16T13:09:11.091Z,11.72
2019-01-16T13:11:42.249Z,13.20
2019-01-16T13:14:15.782Z,13.66
2019-01-16T13:16:46.938Z,12.35
2019-01-16T13:19:28.296Z,12.02
2019-01-16T13:22:08.362Z,12.12
2019-01-16T13:24:45.245Z,11.11
2019-01-16T13:27:22.452Z,12.43
2019-01-16T13:30:09.591Z,10.98
2019-01-16T13:32:40.755Z,11.63
2019-01-16T13:35:14.768Z,13.27
2019-01-16T13:37:51.886Z,13.73
2019-01-16T13:40:23.210Z,13.13
2019-01-16T13:43:00.309Z,11.92
2019-01-16T13:45:34.248Z,11.88
2019-01-16T13:48:11.472Z,11.83
2019-01-16T13:50:48.422Z,11.63
2019-01-16T13:53:22.283Z,12.69
2019-01-16T13:55:56.094Z,11.84
2019-01-16T13:58:27.307Z,11.33
2019-01-16T14:01:04.128Z,11.01
2019-01-16T14:03:38.230Z,11.32
2019-01-16T14:06:09.380Z,11.20
2019-01-16T14:08:49.317Z,13.69
2019-01-16T14:11:20.604Z,12.86
2019-01-16T14:14:00.500Z,11.47
2019-01-16T14:16:43.738Z,12.19
2019-01-16T14:19:20.601Z,11.89
2019-01-16T14:21:53.126Z,12.80
2019-01-16T14:24:30.559Z,12.05
2019-01-16T14:27:17.544Z,11.75
2019-01-16T14:29:58.824Z,11.42
2019-01-16T14:32:29.948Z,10.38
2019-01-16T14:35:06.752Z,9.94
2019-01-16T14:37:55.794Z,8.93
2019-01-16T14:40:29.406Z,7.99
2019-01-16T14:43:01.795Z,7.92
2019-01-16T14:45:32.915Z,7.65
2019-01-16T14:48:19.933Z,7.44
2019-01-16T14:50:51.053Z,7.41
2019-01-16T14:53:26.078Z,7.34
2019-01-16T14:55:57.208Z,6.61
2019-01-16T14:58:31.319Z,6.42
2019-01-16T15:01:18.037Z,6.24
2019-01-16T15:03:49.190Z,5.95
2019-01-16T15:06:20.376Z,5.86
2019-01-16T15:08:57.465Z,5.81
2019-01-16T15:11:40.717Z,5.61
2019-01-16T15:14:11.957Z,5.38
2019-01-16T15:16:43.921Z,5.22
2019-01-16T15:19:32.778Z,4.87
2019-01-16T15:22:06.941Z,4.62
2019-01-16T15:24:38.114Z,4.58
2019-01-16T15:27:27.457Z,4.28
2019-01-16T15:30:04.048Z,3.76
2019-01-16T15:32:33.356Z,3.37
2019-01-16T15:35:20.475Z,2.95
2019-01-16T15:37:57.070Z,2.67
2019-01-16T15:40:29.317Z,2.53
2019-01-16T15:43:00.478Z,2.18
2019-01-16T15:45:32.696Z,1.89
2019-01-16T15:48:09.648Z,1.61
2019-01-16T15:50:43.624Z,1.62
2019-01-16T15:53:14.746Z,1.33
2019-01-16T15:55:51.573Z,1.16
2019-01-16T15:58:22.698Z,1.00
2019-01-16T16:01:30.580Z,0.99
2019-01-16T16:04:05.310Z,0.05
2019-01-16T16:06:45.145Z,0.58
2019-01-16T16:09:23.434Z,0.48
2019-01-16T16:12:09.379Z,0.45
2019-01-16T16:14:49.349Z,0.74
2019-01-16T16:17:20.542Z,0.39
2019-01-16T16:19:57.454Z,0.16
2019-01-16T16:22:46.439Z,0.19
2019-01-16T16:25:17.678Z,0.06
2019-01-16T16:28:04.841Z,-0.06
2019-01-16T16:30:44.666Z,-0.14
2019-01-16T16:33:30.634Z,-0.08
2019-01-16T16:36:17.825Z,0.07
2019-01-16T16:39:05.205Z,0.14
2019-01-16T16:41:38.832Z,-0.12
2019-01-16T16:44:15.934Z,-0.23
2019-01-16T16:46:59.010Z,0.14
2019-01-16T16:49:30.196Z,0.00
2019-01-16T16:52:01.365Z,-0.14
2019-01-16T16:54:48.340Z,0.00
2019-01-16T16:57:29.291Z,-0.24
2019-01-16T17:00:05.887Z,-0.16
2019-01-16T17:02:42.806Z,-0.28
2019-01-16T17:05:14.594Z,-0.28
2019-01-16T17:07:48.243Z,0.24
2019-01-16T17:10:21.916Z,-0.04
2019-01-16T17:12:58.747Z,-0.28
2019-01-16T17:15:32.888Z,-0.37
2019-01-16T17:18:15.874Z,0.04
2019-01-16T17:20:51.246Z,0.09
2019-01-16T17:23:36.863Z,-0.22
2019-01-16T17:26:23.854Z,0.00
2019-01-16T17:29:11.283Z,-0.41
2019-01-16T17:31:43.305Z,-0.56
2019-01-16T17:34:23.515Z,-0.69
2019-01-16T17:36:55.700Z,-0.77
2019-01-16T17:39:32.384Z,-0.78
2019-01-16T17:42:15.692Z,-0.93
2019-01-16T17:44:46.822Z,-0.86
2019-01-16T17:47:18.077Z,-1.01
2019-01-16T17:49:54.625Z,-1.02
2019-01-16T17:52:38.831Z,-1.16
2019-01-16T17:55:15.484Z,-1.21
2019-01-16T17:57:52.095Z,-1.27
2019-01-16T18:00:23.345Z,-0.88
2019-01-16T18:03:00.334Z,-1.27
2019-01-16T18:05:46.655Z,-1.28
2019-01-16T18:08:18.031Z,-1.44
2019-01-16T18:10:55.301Z,-1.28
2019-01-16T18:13:38.292Z,-1.47
2019-01-16T18:16:25.511Z,-1.33
2019-01-16T18:18:56.638Z,-1.62
2019-01-16T18:21:27.821Z,-1.76
2019-01-16T18:23:58.968Z,-1.66
2019-01-16T18:26:38.967Z,-1.86
2019-01-16T18:29:12.815Z,-1.45
2019-01-16T18:32:01.897Z,-1.59
2019-01-16T18:34:41.482Z,-1.59
2019-01-16T18:37:22.101Z,-1.78
2019-01-16T18:39:53.242Z,-1.49
2019-01-16T18:42:27.900Z,-1.75
2019-01-16T18:45:13.830Z,-1.83
2019-01-16T18:48:01.101Z,-1.91
2019-01-16T18:50:32.240Z,-2.04
2019-01-16T18:53:03.382Z,-2.06
2019-01-16T18:55:49.667Z,-2.09
2019-01-16T18:58:29.681Z,-2.07
2019-01-16T19:01:06.727Z,-1.99
2019-01-16T19:03:46.857Z,-1.99
2019-01-16T19:06:26.808Z,-2.16
2019-01-16T19:09:13.784Z,-2.11
2019-01-16T19:11:47.925Z,-1.86
2019-01-16T19:14:19.073Z,-2.08
2019-01-16T19:17:08.185Z,-2.09
2019-01-16T19:19:45.277Z,-2.08
2019-01-16T19:22:31.343Z,-1.93
2019-01-16T19:25:02.480Z,-2.05
2019-01-16T19:27:48.790Z,-2.07
2019-01-16T19:30:18.138Z,-2.06
2019-01-16T19:32:49.322Z,-1.77
2019-01-16T19:35:38.070Z,-1.99
2019-01-16T19:38:13.420Z,-2.16
2019-01-16T19:40:56.198Z,-1.81
2019-01-16T19:43:25.640Z,-2.10
2019-01-16T19:45:56.791Z,-2.17
2019-01-16T19:48:34.847Z,-2.29
2019-01-16T19:51:22.299Z,-2.13
2019-01-16T19:54:09.715Z,-2.07
2019-01-16T19:56:57.054Z,-2.01
2019-01-16T19:59:44.146Z,-2.30
2019-01-16T20:02:18.426Z,-2.35
2019-01-16T20:04:52.375Z,-2.40
2019-01-16T20:07:40.108Z,-2.04
2019-01-16T20:10:14.128Z,-2.38
2019-01-16T20:12:54.348Z,-2.49
2019-01-16T20:16:02.250Z,-2.51
2019-01-16T20:18:39.513Z,-2.48
2019-01-16T20:21:26.611Z,-2.49
2019-01-16T20:24:00.747Z,-2.63
2019-01-16T20:26:36.093Z,-2.16
2019-01-16T20:29:22.656Z,-2.29
2019-01-16T20:31:53.856Z,-2.31
2019-01-16T20:34:25.003Z,-2.45
2019-01-16T20:36:59.132Z,-2.57
2019-01-16T20:39:33.341Z,-2.65
2019-01-16T20:42:16.092Z,-2.67
2019-01-16T20:44:52.906Z,-2.59
2019-01-16T20:47:39.303Z,-2.64
2019-01-16T20:50:20.348Z,-2.48
2019-01-16T20:52:51.608Z,-2.56
2019-01-16T20:55:20.875Z,-2.57
2019-01-16T20:58:03.902Z,-1.99
2019-01-16T21:00:35.051Z,-2.51
2019-01-16T21:03:15.362Z,-2.67
2019-01-16T21:05:55.646Z,-2.70
2019-01-16T21:08:26.824Z,-2.71
2019-01-16T21:11:12.859Z,-2.79
2019-01-16T21:14:00.881Z,-2.80
2019-01-16T21:16:47.204Z,-2.85
2019-01-16T21:19:27.418Z,-2.87
2019-01-16T21:22:01.418Z,-2.88
2019-01-16T21:24:35.243Z,-2.90
2019-01-16T21:27:06.381Z,-2.67
2019-01-16T21:29:43.410Z,-2.85
2019-01-16T21:32:15.725Z,-2.87
2019-01-16T21:34:47.455Z,-2.82
2019-01-16T21:37:18.710Z,-2.97
2019-01-16T21:40:06.110Z,-2.96
2019-01-16T21:42:46.405Z,-3.07
2019-01-16T21:45:23.453Z,-3.10
2019-01-16T21:47:54.610Z,-3.03
2019-01-16T21:50:32.950Z,-2.88
2019-01-16T21:53:05.239Z,-2.97
2019-01-16T21:55:45.494Z,-3.00
2019-01-16T21:58:32.445Z,-2.95
2019-01-16T22:01:09.222Z,-2.73
2019-01-16T22:03:40.458Z,-2.87
2019-01-16T22:06:14.311Z,-2.77
2019-01-16T22:08:45.473Z,-3.01
2019-01-16T22:11:29.915Z,-3.10
2019-01-16T22:14:01.074Z,-3.11
2019-01-16T22:16:40.746Z,-2.91
2019-01-16T22:19:20.458Z,-3.20
2019-01-16T22:22:03.210Z,-3.06
2019-01-16T22:24:41.304Z,-3.36
2019-01-16T22:27:12.513Z,-3.45
2019-01-16T22:29:59.778Z,-3.48
2019-01-16T22:32:33.558Z,-3.52
2019-01-16T22:35:04.737Z,-3.57
2019-01-16T22:37:44.995Z,-3.54
2019-01-16T22:40:28.062Z,-3.58
2019-01-16T22:43:01.772Z,-3.65
2019-01-16T22:45:32.921Z,-3.46
2019-01-16T22:48:04.058Z,-3.06
2019-01-16T22:50:51.304Z,-3.26
2019-01-16T22:53:22.442Z,-3.37
2019-01-16T22:56:02.425Z,-3.65
2019-01-16T22:58:42.249Z,-3.74
2019-01-16T23:01:18.718Z,-3.78
2019-01-16T23:03:59.647Z,-3.72
2019-01-16T23:06:39.970Z,-3.78
2019-01-16T23:09:09.882Z,-3.77
2019-01-16T23:11:43.598Z,-3.71
2019-01-16T23:14:15.583Z,-3.41
2019-01-16T23:16:44.872Z,-3.45
2019-01-16T23:19:21.839Z,-3.40
2019-01-16T23:22:08.774Z,-3.65
2019-01-16T23:24:57.811Z,-3.68
2019-01-16T23:27:29.015Z,-3.71
2019-01-16T23:30:09.105Z,-3.70
2019-01-16T23:32:40.335Z,-3.57
2019-01-16T23:35:14.410Z,-3.51
2019-01-16T23:37:47.946Z,-3.29
2019-01-16T23:40:17.278Z,-3.43
2019-01-16T23:42:54.074Z,-3.58
2019-01-16T23:45:23.372Z,-3.84
2019-01-16T23:48:00.341Z,-4.00
2019-01-16T23:50:46.051Z,-3.65
2019-01-16T23:53:32.757Z,-3.77
2019-01-16T23:56:09.927Z,-3.99
2019-01-16T23:58:49.852Z,-4.00
